Taos, Missouri
Current Conditions -  °F | °C
As of 1:53 AM on Monday 26 Jan 2015 (Local Time) from KJEF Reporting Station
Overcast Overcast  
Wind Chill: 26°   Ceiling: 1300
Heat Index: 32°   Visibility: 9mi
Dew Point: 28°   Wind: 6mph
Humidity: 85%   Direction: 310°NW
Pressure: 30.09"   Gusts: NA
Location:  38.5003°N, 92.1516°W
Report Text: KJEF 260753Z AUTO 31005KT 9SM OVC013 00/M02 A3009 RMK AO2 SLP182 T00001022
Loading
Personal Weather Stations






























Interactive Weather Map New forecast layout! Learn more

10-Day Weather Forecast

Advertisements
Track Severe Weather on mobile